sensor_id;sensor_type;location;lat;lon;timestamp;temperature;humidity
5743;DHT22;2896;53.500;10.020;2023-05-07T00:01:02;9.10;1.00
5743;DHT22;2896;53.500;10.020;2023-05-07T00:03:28;9.10;1.00
5743;DHT22;2896;53.500;10.020;2023-05-07T00:05:55;9.10;1.00
5743;DHT22;2896;53.500;10.020;2023-05-07T00:08:22;9.10;1.00
5743;DHT22;2896;53.500;10.020;2023-05-07T00:10:48;9.20;1.00
5743;DHT22;2896;53.500;10.020;2023-05-07T00:13:15;9.20;1.00
5743;DHT22;2896;53.500;10.020;2023-05-07T00:15:43;9.20;1.00
5743;DHT22;2896;53.500;10.020;2023-05-07T00:18:10;9.20;1.00
5743;DHT22;2896;53.500;10.020;2023-05-07T00:20:36;9.20;1.00
5743;DHT22;2896;53.500;10.020;2023-05-07T00:23:03;9.10;1.00
5743;DHT22;2896;53.500;10.020;2023-05-07T00:25:29;9.10;1.00
5743;DHT22;2896;53.500;10.020;2023-05-07T00:27:56;9.20;1.00
5743;DHT22;2896;53.500;10.020;2023-05-07T00:30:28;9.10;1.00
5743;DHT22;2896;53.500;10.020;2023-05-07T00:32:56;9.20;1.00
5743;DHT22;2896;53.500;10.020;2023-05-07T00:35:22;9.10;1.00
5743;DHT22;2896;53.500;10.020;2023-05-07T00:37:49;9.10;1.00
5743;DHT22;2896;53.500;10.020;2023-05-07T00:40:16;9.10;1.00
5743;DHT22;2896;53.500;10.020;2023-05-07T00:42:42;9.10;1.00
5743;DHT22;2896;53.500;10.020;2023-05-07T00:45:12;9.20;1.00
5743;DHT22;2896;53.500;10.020;2023-05-07T00:47:39;9.20;1.00
5743;DHT22;2896;53.500;10.020;2023-05-07T00:50:08;9.20;1.00
5743;DHT22;2896;53.500;10.020;2023-05-07T00:52:36;9.10;1.00
5743;DHT22;2896;53.500;10.020;2023-05-07T00:55:06;9.10;1.00
5743;DHT22;2896;53.500;10.020;2023-05-07T00:57:33;9.20;1.00
5743;DHT22;2896;53.500;10.020;2023-05-07T01:00:03;9.10;1.00
5743;DHT22;2896;53.500;10.020;2023-05-07T01:02:30;9.10;1.00
5743;DHT22;2896;53.500;10.020;2023-05-07T01:04:56;9.10;1.00
5743;DHT22;2896;53.500;10.020;2023-05-07T01:07:24;9.10;1.00
5743;DHT22;2896;53.500;10.020;2023-05-07T01:09:51;9.20;1.00
5743;DHT22;2896;53.500;10.020;2023-05-07T01:12:18;9.20;1.00
5743;DHT22;2896;53.500;10.020;2023-05-07T01:14:45;9.20;1.00
5743;DHT22;2896;53.500;10.020;2023-05-07T01:17:14;9.10;1.00
5743;DHT22;2896;53.500;10.020;2023-05-07T01:19:41;9.20;1.00
5743;DHT22;2896;53.500;10.020;2023-05-07T01:22:09;9.20;1.00
5743;DHT22;2896;53.500;10.020;2023-05-07T01:24:38;9.20;1.00
5743;DHT22;2896;53.500;10.020;2023-05-07T01:27:05;9.20;1.00
5743;DHT22;2896;53.500;10.020;2023-05-07T01:29:31;9.20;1.00
5743;DHT22;2896;53.500;10.020;2023-05-07T01:31:59;9.20;1.00
5743;DHT22;2896;53.500;10.020;2023-05-07T01:34:29;9.20;1.00
5743;DHT22;2896;53.500;10.020;2023-05-07T01:36:56;9.20;1.00
5743;DHT22;2896;53.500;10.020;2023-05-07T01:39:25;9.20;1.00
5743;DHT22;2896;53.500;10.020;2023-05-07T01:41:53;9.20;1.00
5743;DHT22;2896;53.500;10.020;2023-05-07T01:44:21;9.20;1.00
5743;DHT22;2896;53.500;10.020;2023-05-07T01:46:48;9.30;1.00
5743;DHT22;2896;53.500;10.020;2023-05-07T01:49:16;9.20;1.00
5743;DHT22;2896;53.500;10.020;2023-05-07T01:51:43;9.30;1.00
5743;DHT22;2896;53.500;10.020;2023-05-07T01:54:10;9.30;1.00
5743;DHT22;2896;53.500;10.020;2023-05-07T01:56:36;9.30;1.00
5743;DHT22;2896;53.500;10.020;2023-05-07T01:59:04;9.30;1.00
5743;DHT22;2896;53.500;10.020;2023-05-07T02:01:31;9.20;1.00
5743;DHT22;2896;53.500;10.020;2023-05-07T02:03:58;9.20;1.00
5743;DHT22;2896;53.500;10.020;2023-05-07T02:06:24;9.30;1.00
5743;DHT22;2896;53.500;10.020;2023-05-07T02:08:51;9.30;1.00
5743;DHT22;2896;53.500;10.020;2023-05-07T02:11:17;9.30;1.00
5743;DHT22;2896;53.500;10.020;2023-05-07T02:13:44;9.30;1.00
5743;DHT22;2896;53.500;10.020;2023-05-07T02:16:12;9.30;1.00
5743;DHT22;2896;53.500;10.020;2023-05-07T02:18:39;9.30;1.00
5743;DHT22;2896;53.500;10.020;2023-05-07T02:21:06;9.20;1.00
5743;DHT22;2896;53.500;10.020;2023-05-07T02:23:33;9.30;1.00
5743;DHT22;2896;53.500;10.020;2023-05-07T02:25:59;9.20;1.00
5743;DHT22;2896;53.500;10.020;2023-05-07T02:28:26;9.30;1.00
5743;DHT22;2896;53.500;10.020;2023-05-07T02:30:52;9.30;1.00
5743;DHT22;2896;53.500;10.020;2023-05-07T02:33:21;9.30;1.00
5743;DHT22;2896;53.500;10.020;2023-05-07T02:35:47;9.20;1.00
5743;DHT22;2896;53.500;10.020;2023-05-07T02:38:14;9.20;1.00
5743;DHT22;2896;53.500;10.020;2023-05-07T02:40:41;9.20;1.00
5743;DHT22;2896;53.500;10.020;2023-05-07T02:43:08;9.30;1.00
5743;DHT22;2896;53.500;10.020;2023-05-07T02:45:35;9.30;1.00
5743;DHT22;2896;53.500;10.020;2023-05-07T02:48:03;9.40;1.00
5743;DHT22;2896;53.500;10.020;2023-05-07T02:50:32;9.30;1.00
5743;DHT22;2896;53.500;10.020;2023-05-07T02:52:58;9.30;1.00
5743;DHT22;2896;53.500;10.020;2023-05-07T02:55:25;9.30;1.00
5743;DHT22;2896;53.500;10.020;2023-05-07T02:57:52;9.20;1.00
5743;DHT22;2896;53.500;10.020;2023-05-07T03:00:19;9.20;1.00
5743;DHT22;2896;53.500;10.020;2023-05-07T03:02:46;9.20;1.00
5743;DHT22;2896;53.500;10.020;2023-05-07T03:05:13;9.20;1.00
5743;DHT22;2896;53.500;10.020;2023-05-07T03:07:41;9.30;1.00
5743;DHT22;2896;53.500;10.020;2023-05-07T03:10:10;9.20;1.00
5743;DHT22;2896;53.500;10.020;2023-05-07T03:12:37;9.20;1.00
5743;DHT22;2896;53.500;10.020;2023-05-07T03:15:05;9.30;1.00
5743;DHT22;2896;53.500;10.020;2023-05-07T03:17:31;9.20;1.00
5743;DHT22;2896;53.500;10.020;2023-05-07T03:19:58;9.20;1.00
5743;DHT22;2896;53.500;10.020;2023-05-07T03:22:25;9.20;1.00
5743;DHT22;2896;53.500;10.020;2023-05-07T03:24:53;9.20;1.00
5743;DHT22;2896;53.500;10.020;2023-05-07T03:27:19;9.20;1.00
5743;DHT22;2896;53.500;10.020;2023-05-07T03:29:46;9.30;1.00
5743;DHT22;2896;53.500;10.020;2023-05-07T03:32:13;9.20;1.00
5743;DHT22;2896;53.500;10.020;2023-05-07T03:34:39;9.20;1.00
5743;DHT22;2896;53.500;10.020;2023-05-07T03:37:06;9.20;1.00
5743;DHT22;2896;53.500;10.020;2023-05-07T03:39:33;9.20;1.00
5743;DHT22;2896;53.500;10.020;2023-05-07T03:42:01;9.10;1.00
5743;DHT22;2896;53.500;10.020;2023-05-07T03:44:27;9.20;1.00
5743;DHT22;2896;53.500;10.020;2023-05-07T03:46:54;9.20;1.00
5743;DHT22;2896;53.500;10.020;2023-05-07T03:49:21;9.20;1.00
5743;DHT22;2896;53.500;10.020;2023-05-07T03:51:48;9.20;1.00
5743;DHT22;2896;53.500;10.020;2023-05-07T03:54:14;9.20;1.00
5743;DHT22;2896;53.500;10.020;2023-05-07T03:56:41;9.20;1.00
5743;DHT22;2896;53.500;10.020;2023-05-07T03:59:09;9.20;1.00
5743;DHT22;2896;53.500;10.020;2023-05-07T04:01:35;9.20;1.00
5743;DHT22;2896;53.500;10.020;2023-05-07T04:04:02;9.20;1.00
5743;DHT22;2896;53.500;10.020;2023-05-07T04:06:29;9.20;1.00
5743;DHT22;2896;53.500;10.020;2023-05-07T04:08:56;9.20;1.00
5743;DHT22;2896;53.500;10.020;2023-05-07T04:11:23;9.10;1.00
5743;DHT22;2896;53.500;10.020;2023-05-07T04:13:50;9.10;1.00
5743;DHT22;2896;53.500;10.020;2023-05-07T04:16:18;9.20;1.00
5743;DHT22;2896;53.500;10.020;2023-05-07T04:18:44;9.20;1.00
5743;DHT22;2896;53.500;10.020;2023-05-07T04:21:14;9.20;1.00
5743;DHT22;2896;53.500;10.020;2023-05-07T04:23:41;9.10;1.00
5743;DHT22;2896;53.500;10.020;2023-05-07T04:26:08;9.30;1.00
5743;DHT22;2896;53.500;10.020;2023-05-07T04:28:35;9.20;1.00
5743;DHT22;2896;53.500;10.020;2023-05-07T04:31:02;9.20;1.00
5743;DHT22;2896;53.500;10.020;2023-05-07T04:33:30;9.30;1.00
5743;DHT22;2896;53.500;10.020;2023-05-07T04:35:56;9.30;1.00
5743;DHT22;2896;53.500;10.020;2023-05-07T04:38:23;9.40;1.00
5743;DHT22;2896;53.500;10.020;2023-05-07T04:40:49;9.40;1.00
5743;DHT22;2896;53.500;10.020;2023-05-07T04:43:16;9.40;1.00
5743;DHT22;2896;53.500;10.020;2023-05-07T04:45:43;9.40;1.00
5743;DHT22;2896;53.500;10.020;2023-05-07T04:48:09;9.40;1.00
5743;DHT22;2896;53.500;10.020;2023-05-07T04:50:37;9.30;1.00
5743;DHT22;2896;53.500;10.020;2023-05-07T04:53:04;9.40;1.00
5743;DHT22;2896;53.500;10.020;2023-05-07T04:55:30;9.40;1.00
5743;DHT22;2896;53.500;10.020;2023-05-07T04:57:57;9.40;1.00
5743;DHT22;2896;53.500;10.020;2023-05-07T05:00:26;9.40;1.00
5743;DHT22;2896;53.500;10.020;2023-05-07T05:02:52;9.40;1.00
5743;DHT22;2896;53.500;10.020;2023-05-07T05:05:19;9.40;1.00
5743;DHT22;2896;53.500;10.020;2023-05-07T05:07:47;9.50;1.00
5743;DHT22;2896;53.500;10.020;2023-05-07T05:10:14;9.50;1.00
5743;DHT22;2896;53.500;10.020;2023-05-07T05:12:41;9.50;1.00
5743;DHT22;2896;53.500;10.020;2023-05-07T05:15:11;9.50;1.00
5743;DHT22;2896;53.500;10.020;2023-05-07T05:17:38;9.60;1.00
5743;DHT22;2896;53.500;10.020;2023-05-07T05:20:06;9.60;1.00
5743;DHT22;2896;53.500;10.020;2023-05-07T05:22:32;9.60;1.00
5743;DHT22;2896;53.500;10.020;2023-05-07T05:25:00;9.60;1.00
5743;DHT22;2896;53.500;10.020;2023-05-07T05:27:27;9.70;1.00
5743;DHT22;2896;53.500;10.020;2023-05-07T05:29:55;9.70;1.00
5743;DHT22;2896;53.500;10.020;2023-05-07T05:32:21;9.60;1.00
5743;DHT22;2896;53.500;10.020;2023-05-07T05:34:48;9.60;1.00
5743;DHT22;2896;53.500;10.020;2023-05-07T05:37:14;9.60;1.00
5743;DHT22;2896;53.500;10.020;2023-05-07T05:39:41;9.60;1.00
5743;DHT22;2896;53.500;10.020;2023-05-07T05:42:09;9.60;1.00
5743;DHT22;2896;53.500;10.020;2023-05-07T05:44:36;9.60;1.00
5743;DHT22;2896;53.500;10.020;2023-05-07T05:47:03;9.60;1.00
5743;DHT22;2896;53.500;10.020;2023-05-07T05:49:29;9.70;1.00
5743;DHT22;2896;53.500;10.020;2023-05-07T05:51:56;9.70;1.00
5743;DHT22;2896;53.500;10.020;2023-05-07T05:54:23;9.70;1.00
5743;DHT22;2896;53.500;10.020;2023-05-07T05:56:49;9.70;1.00
5743;DHT22;2896;53.500;10.020;2023-05-07T05:59:17;9.70;1.00
5743;DHT22;2896;53.500;10.020;2023-05-07T06:01:44;9.80;1.00
5743;DHT22;2896;53.500;10.020;2023-05-07T06:04:10;9.90;1.00
5743;DHT22;2896;53.500;10.020;2023-05-07T06:06:37;9.80;1.00
5743;DHT22;2896;53.500;10.020;2023-05-07T06:09:03;9.90;1.00
5743;DHT22;2896;53.500;10.020;2023-05-07T06:11:31;9.90;1.00
5743;DHT22;2896;53.500;10.020;2023-05-07T06:13:58;9.90;1.00
5743;DHT22;2896;53.500;10.020;2023-05-07T06:16:26;9.90;1.00
5743;DHT22;2896;53.500;10.020;2023-05-07T06:18:52;9.90;1.00
5743;DHT22;2896;53.500;10.020;2023-05-07T06:21:19;9.90;1.00
5743;DHT22;2896;53.500;10.020;2023-05-07T06:23:45;10.00;1.00
5743;DHT22;2896;53.500;10.020;2023-05-07T06:26:12;10.00;1.00
5743;DHT22;2896;53.500;10.020;2023-05-07T06:28:39;10.10;1.00
5743;DHT22;2896;53.500;10.020;2023-05-07T06:31:13;10.10;1.00
5743;DHT22;2896;53.500;10.020;2023-05-07T06:33:41;12.90;1.00
5743;DHT22;2896;53.500;10.020;2023-05-07T06:36:08;10.10;1.00
5743;DHT22;2896;53.500;10.020;2023-05-07T06:38:35;10.20;1.00
5743;DHT22;2896;53.500;10.020;2023-05-07T06:41:02;10.20;1.00
5743;DHT22;2896;53.500;10.020;2023-05-07T06:43:28;10.20;1.00
5743;DHT22;2896;53.500;10.020;2023-05-07T06:45:55;10.20;1.00
5743;DHT22;2896;53.500;10.020;2023-05-07T06:48:21;10.30;1.00
5743;DHT22;2896;53.500;10.020;2023-05-07T06:50:50;10.40;1.00
5743;DHT22;2896;53.500;10.020;2023-05-07T06:53:16;10.40;1.00
5743;DHT22;2896;53.500;10.020;2023-05-07T06:55:43;10.30;1.00
5743;DHT22;2896;53.500;10.020;2023-05-07T06:58:09;10.40;1.00
5743;DHT22;2896;53.500;10.020;2023-05-07T07:00:36;10.50;1.00
5743;DHT22;2896;53.500;10.020;2023-05-07T07:03:03;10.50;1.00
5743;DHT22;2896;53.500;10.020;2023-05-07T07:05:29;10.50;1.00
5743;DHT22;2896;53.500;10.020;2023-05-07T07:07:57;10.50;1.00
5743;DHT22;2896;53.500;10.020;2023-05-07T07:10:24;10.60;1.00
5743;DHT22;2896;53.500;10.020;2023-05-07T07:12:51;10.60;1.00
5743;DHT22;2896;53.500;10.020;2023-05-07T07:15:19;10.70;1.00
5743;DHT22;2896;53.500;10.020;2023-05-07T07:17:46;10.70;99.90
5743;DHT22;2896;53.500;10.020;2023-05-07T07:20:12;10.80;99.90
5743;DHT22;2896;53.500;10.020;2023-05-07T07:22:39;10.80;99.90
5743;DHT22;2896;53.500;10.020;2023-05-07T07:25:08;10.90;99.90
5743;DHT22;2896;53.500;10.020;2023-05-07T07:27:36;10.90;99.90
5743;DHT22;2896;53.500;10.020;2023-05-07T07:30:04;10.90;99.90
5743;DHT22;2896;53.500;10.020;2023-05-07T07:32:31;10.80;1.00
5743;DHT22;2896;53.500;10.020;2023-05-07T07:34:58;13.80;99.90
5743;DHT22;2896;53.500;10.020;2023-05-07T07:37:25;11.00;99.90
5743;DHT22;2896;53.500;10.020;2023-05-07T07:39:52;11.00;99.90
5743;DHT22;2896;53.500;10.020;2023-05-07T07:42:20;11.00;99.90
5743;DHT22;2896;53.500;10.020;2023-05-07T07:44:46;11.10;99.90
5743;DHT22;2896;53.500;10.020;2023-05-07T07:47:13;11.10;99.90
5743;DHT22;2896;53.500;10.020;2023-05-07T07:49:39;11.30;99.90
5743;DHT22;2896;53.500;10.020;2023-05-07T07:52:06;11.20;99.90
5743;DHT22;2896;53.500;10.020;2023-05-07T07:54:33;11.30;99.90
5743;DHT22;2896;53.500;10.020;2023-05-07T07:57:00;11.40;99.90
5743;DHT22;2896;53.500;10.020;2023-05-07T07:59:28;11.30;99.90
5743;DHT22;2896;53.500;10.020;2023-05-07T08:01:54;11.40;99.90
5743;DHT22;2896;53.500;10.020;2023-05-07T08:04:22;11.40;99.90
5743;DHT22;2896;53.500;10.020;2023-05-07T08:06:49;11.50;99.90
5743;DHT22;2896;53.500;10.020;2023-05-07T08:09:15;11.50;99.90
5743;DHT22;2896;53.500;10.020;2023-05-07T08:11:42;11.40;99.90
5743;DHT22;2896;53.500;10.020;2023-05-07T08:14:09;11.40;99.90
5743;DHT22;2896;53.500;10.020;2023-05-07T08:16:37;11.40;99.90
5743;DHT22;2896;53.500;10.020;2023-05-07T08:19:03;11.30;99.90
5743;DHT22;2896;53.500;10.020;2023-05-07T08:21:30;11.40;99.90
5743;DHT22;2896;53.500;10.020;2023-05-07T08:23:57;11.50;99.90
5743;DHT22;2896;53.500;10.020;2023-05-07T08:26:23;11.40;99.90
5743;DHT22;2896;53.500;10.020;2023-05-07T08:28:50;11.40;99.90
5743;DHT22;2896;53.500;10.020;2023-05-07T08:31:17;11.30;99.90
5743;DHT22;2896;53.500;10.020;2023-05-07T08:33:45;11.40;99.90
5743;DHT22;2896;53.500;10.020;2023-05-07T08:36:11;11.60;99.90
5743;DHT22;2896;53.500;10.020;2023-05-07T08:38:38;11.60;99.90
5743;DHT22;2896;53.500;10.020;2023-05-07T08:41:06;11.70;99.90
5743;DHT22;2896;53.500;10.020;2023-05-07T08:43:33;11.90;99.90
5743;DHT22;2896;53.500;10.020;2023-05-07T08:46:02;11.80;99.90
5743;DHT22;2896;53.500;10.020;2023-05-07T08:48:31;11.70;99.90
5743;DHT22;2896;53.500;10.020;2023-05-07T08:51:00;11.80;99.90
5743;DHT22;2896;53.500;10.020;2023-05-07T08:53:27;11.80;99.90
5743;DHT22;2896;53.500;10.020;2023-05-07T08:55:53;12.00;99.90
5743;DHT22;2896;53.500;10.020;2023-05-07T08:58:20;12.20;99.90
5743;DHT22;2896;53.500;10.020;2023-05-07T09:00:47;12.20;99.90
5743;DHT22;2896;53.500;10.020;2023-05-07T09:03:13;12.30;99.90
5743;DHT22;2896;53.500;10.020;2023-05-07T09:05:41;12.30;99.90
5743;DHT22;2896;53.500;10.020;2023-05-07T09:08:14;12.40;99.90
5743;DHT22;2896;53.500;10.020;2023-05-07T09:10:40;13.30;99.90
5743;DHT22;2896;53.500;10.020;2023-05-07T09:13:07;12.60;99.90
5743;DHT22;2896;53.500;10.020;2023-05-07T09:15:34;12.80;99.90
5743;DHT22;2896;53.500;10.020;2023-05-07T09:18:01;12.80;99.90
5743;DHT22;2896;53.500;10.020;2023-05-07T09:20:30;12.80;99.90
5743;DHT22;2896;53.500;10.020;2023-05-07T09:22:56;12.80;99.90
5743;DHT22;2896;53.500;10.020;2023-05-07T09:25:29;12.70;99.90
5743;DHT22;2896;53.500;10.020;2023-05-07T09:27:56;12.80;99.90
5743;DHT22;2896;53.500;10.020;2023-05-07T09:30:23;12.60;99.90
5743;DHT22;2896;53.500;10.020;2023-05-07T09:32:53;12.70;99.90
5743;DHT22;2896;53.500;10.020;2023-05-07T09:35:20;12.80;99.90
5743;DHT22;2896;53.500;10.020;2023-05-07T09:37:49;12.80;99.90
5743;DHT22;2896;53.500;10.020;2023-05-07T09:40:23;13.00;99.90
5743;DHT22;2896;53.500;10.020;2023-05-07T09:42:51;13.00;99.90
5743;DHT22;2896;53.500;10.020;2023-05-07T09:45:22;13.10;99.90
5743;DHT22;2896;53.500;10.020;2023-05-07T09:47:54;13.30;99.90
5743;DHT22;2896;53.500;10.020;2023-05-07T09:50:24;13.00;99.90
5743;DHT22;2896;53.500;10.020;2023-05-07T09:52:53;13.10;99.90
5743;DHT22;2896;53.500;10.020;2023-05-07T09:55:21;13.00;99.90
5743;DHT22;2896;53.500;10.020;2023-05-07T09:57:51;13.10;99.90
5743;DHT22;2896;53.500;10.020;2023-05-07T10:00:19;13.00;99.90
5743;DHT22;2896;53.500;10.020;2023-05-07T10:02:47;13.00;99.90
5743;DHT22;2896;53.500;10.020;2023-05-07T10:05:15;14.80;99.90
5743;DHT22;2896;53.500;10.020;2023-05-07T10:07:43;12.90;99.90
5743;DHT22;2896;53.500;10.020;2023-05-07T10:10:11;13.00;99.90
5743;DHT22;2896;53.500;10.020;2023-05-07T10:12:38;13.10;99.90
5743;DHT22;2896;53.500;10.020;2023-05-07T10:15:08;13.10;99.90
5743;DHT22;2896;53.500;10.020;2023-05-07T10:17:36;12.90;99.90
5743;DHT22;2896;53.500;10.020;2023-05-07T10:20:03;12.90;99.90
5743;DHT22;2896;53.500;10.020;2023-05-07T10:22:34;13.10;99.90
5743;DHT22;2896;53.500;10.020;2023-05-07T10:25:06;13.20;99.90
5743;DHT22;2896;53.500;10.020;2023-05-07T10:27:33;13.30;99.90
5743;DHT22;2896;53.500;10.020;2023-05-07T10:30:11;12.80;99.90
5743;DHT22;2896;53.500;10.020;2023-05-07T10:32:42;12.90;99.90
5743;DHT22;2896;53.500;10.020;2023-05-07T10:35:16;13.10;99.90
5743;DHT22;2896;53.500;10.020;2023-05-07T10:37:45;13.40;99.90
5743;DHT22;2896;53.500;10.020;2023-05-07T10:40:13;13.40;99.90
5743;DHT22;2896;53.500;10.020;2023-05-07T10:42:53;13.40;99.90
5743;DHT22;2896;53.500;10.020;2023-05-07T10:45:22;13.50;99.90
5743;DHT22;2896;53.500;10.020;2023-05-07T10:48:06;13.30;99.90
5743;DHT22;2896;53.500;10.020;2023-05-07T10:50:33;13.10;99.90
5743;DHT22;2896;53.500;10.020;2023-05-07T10:53:22;13.30;99.90
5743;DHT22;2896;53.500;10.020;2023-05-07T10:55:52;13.50;99.90
5743;DHT22;2896;53.500;10.020;2023-05-07T10:58:38;13.70;99.90
5743;DHT22;2896;53.500;10.020;2023-05-07T11:01:06;13.80;99.90
5743;DHT22;2896;53.500;10.020;2023-05-07T11:03:33;13.90;99.90
5743;DHT22;2896;53.500;10.020;2023-05-07T11:06:10;14.20;99.90
5743;DHT22;2896;53.500;10.020;2023-05-07T11:08:53;14.30;99.90
5743;DHT22;2896;53.500;10.020;2023-05-07T11:11:45;14.30;99.90
5743;DHT22;2896;53.500;10.020;2023-05-07T11:14:13;14.50;99.90
5743;DHT22;2896;53.500;10.020;2023-05-07T11:16:41;14.70;99.90
5743;DHT22;2896;53.500;10.020;2023-05-07T11:19:08;14.80;99.90
5743;DHT22;2896;53.500;10.020;2023-05-07T11:21:35;14.80;99.90
5743;DHT22;2896;53.500;10.020;2023-05-07T11:24:04;14.70;99.90
5743;DHT22;2896;53.500;10.020;2023-05-07T11:26:44;14.70;99.90
5743;DHT22;2896;53.500;10.020;2023-05-07T11:29:14;15.00;99.90
5743;DHT22;2896;53.500;10.020;2023-05-07T11:31:41;15.20;99.90
5743;DHT22;2896;53.500;10.020;2023-05-07T11:34:08;15.10;99.90
5743;DHT22;2896;53.500;10.020;2023-05-07T11:36:36;15.50;99.90
5743;DHT22;2896;53.500;10.020;2023-05-07T11:39:23;15.90;99.90
5743;DHT22;2896;53.500;10.020;2023-05-07T11:41:50;15.90;99.90
5743;DHT22;2896;53.500;10.020;2023-05-07T11:44:18;15.70;99.90
5743;DHT22;2896;53.500;10.020;2023-05-07T11:46:45;16.40;99.90
5743;DHT22;2896;53.500;10.020;2023-05-07T11:49:11;16.20;99.90
5743;DHT22;2896;53.500;10.020;2023-05-07T11:51:38;15.90;99.90
5743;DHT22;2896;53.500;10.020;2023-05-07T11:54:06;15.80;99.90
5743;DHT22;2896;53.500;10.020;2023-05-07T11:56:34;16.30;99.90
5743;DHT22;2896;53.500;10.020;2023-05-07T11:59:01;16.30;99.90
5743;DHT22;2896;53.500;10.020;2023-05-07T12:01:29;16.40;99.90
5743;DHT22;2896;53.500;10.020;2023-05-07T12:03:55;16.60;99.90
5743;DHT22;2896;53.500;10.020;2023-05-07T12:06:22;16.50;99.90
5743;DHT22;2896;53.500;10.020;2023-05-07T12:08:49;16.40;99.90
5743;DHT22;2896;53.500;10.020;2023-05-07T12:11:16;16.60;99.90
5743;DHT22;2896;53.500;10.020;2023-05-07T12:13:47;16.80;99.90
5743;DHT22;2896;53.500;10.020;2023-05-07T12:16:14;16.40;99.90
5743;DHT22;2896;53.500;10.020;2023-05-07T12:18:42;16.20;99.90
5743;DHT22;2896;53.500;10.020;2023-05-07T12:21:10;16.40;99.90
5743;DHT22;2896;53.500;10.020;2023-05-07T12:23:37;19.20;99.90
5743;DHT22;2896;53.500;10.020;2023-05-07T12:26:05;16.90;99.90
5743;DHT22;2896;53.500;10.020;2023-05-07T12:28:36;17.10;99.90
5743;DHT22;2896;53.500;10.020;2023-05-07T12:31:04;17.10;99.90
5743;DHT22;2896;53.500;10.020;2023-05-07T12:33:31;17.20;99.90
5743;DHT22;2896;53.500;10.020;2023-05-07T12:36:03;17.00;99.90
5743;DHT22;2896;53.500;10.020;2023-05-07T12:38:35;16.90;99.90
5743;DHT22;2896;53.500;10.020;2023-05-07T12:41:02;16.90;99.90
5743;DHT22;2896;53.500;10.020;2023-05-07T12:43:29;16.50;99.90
5743;DHT22;2896;53.500;10.020;2023-05-07T12:45:57;16.50;99.90
5743;DHT22;2896;53.500;10.020;2023-05-07T12:48:25;16.80;99.90
5743;DHT22;2896;53.500;10.020;2023-05-07T12:50:53;16.80;99.90
5743;DHT22;2896;53.500;10.020;2023-05-07T12:53:23;16.70;99.90
5743;DHT22;2896;53.500;10.020;2023-05-07T12:55:51;16.80;99.90
5743;DHT22;2896;53.500;10.020;2023-05-07T12:58:19;16.70;99.90
5743;DHT22;2896;53.500;10.020;2023-05-07T13:00:48;16.90;99.90
5743;DHT22;2896;53.500;10.020;2023-05-07T13:03:21;16.90;99.90
5743;DHT22;2896;53.500;10.020;2023-05-07T13:05:49;16.80;99.90
5743;DHT22;2896;53.500;10.020;2023-05-07T13:08:26;16.80;99.90
5743;DHT22;2896;53.500;10.020;2023-05-07T13:10:53;17.00;99.90
5743;DHT22;2896;53.500;10.020;2023-05-07T13:13:20;16.90;99.90
5743;DHT22;2896;53.500;10.020;2023-05-07T13:15:47;17.10;99.90
5743;DHT22;2896;53.500;10.020;2023-05-07T13:18:14;17.10;99.90
5743;DHT22;2896;53.500;10.020;2023-05-07T13:20:41;17.60;99.90
5743;DHT22;2896;53.500;10.020;2023-05-07T13:23:07;18.00;99.90
5743;DHT22;2896;53.500;10.020;2023-05-07T13:25:35;18.20;99.90
5743;DHT22;2896;53.500;10.020;2023-05-07T13:28:02;18.40;99.90
5743;DHT22;2896;53.500;10.020;2023-05-07T13:30:29;18.20;99.90
5743;DHT22;2896;53.500;10.020;2023-05-07T13:32:56;18.50;99.90
5743;DHT22;2896;53.500;10.020;2023-05-07T13:35:23;18.40;99.90
5743;DHT22;2896;53.500;10.020;2023-05-07T13:37:49;18.50;99.90
5743;DHT22;2896;53.500;10.020;2023-05-07T13:40:17;18.70;99.90
5743;DHT22;2896;53.500;10.020;2023-05-07T13:42:46;19.20;99.90
5743;DHT22;2896;53.500;10.020;2023-05-07T13:45:12;19.70;99.90
5743;DHT22;2896;53.500;10.020;2023-05-07T13:47:39;19.40;99.90
5743;DHT22;2896;53.500;10.020;2023-05-07T13:50:07;19.00;99.90
5743;DHT22;2896;53.500;10.020;2023-05-07T13:52:34;18.50;99.90
5743;DHT22;2896;53.500;10.020;2023-05-07T13:55:00;18.80;99.90
5743;DHT22;2896;53.500;10.020;2023-05-07T13:57:27;18.80;99.90
5743;DHT22;2896;53.500;10.020;2023-05-07T13:59:55;18.80;99.90
5743;DHT22;2896;53.500;10.020;2023-05-07T14:02:22;18.60;99.90
5743;DHT22;2896;53.500;10.020;2023-05-07T14:04:48;19.30;99.90
5743;DHT22;2896;53.500;10.020;2023-05-07T14:07:15;19.30;99.90
5743;DHT22;2896;53.500;10.020;2023-05-07T14:09:42;18.00;99.90
5743;DHT22;2896;53.500;10.020;2023-05-07T14:12:08;19.20;99.90
5743;DHT22;2896;53.500;10.020;2023-05-07T14:14:35;18.70;99.90
5743;DHT22;2896;53.500;10.020;2023-05-07T14:17:03;19.00;99.90
5743;DHT22;2896;53.500;10.020;2023-05-07T14:19:31;19.10;99.90
5743;DHT22;2896;53.500;10.020;2023-05-07T14:21:57;19.40;99.90
5743;DHT22;2896;53.500;10.020;2023-05-07T14:24:24;19.50;99.90
5743;DHT22;2896;53.500;10.020;2023-05-07T14:26:51;19.50;99.90
5743;DHT22;2896;53.500;10.020;2023-05-07T14:29:17;19.70;99.90
5743;DHT22;2896;53.500;10.020;2023-05-07T14:31:45;20.00;99.90
5743;DHT22;2896;53.500;10.020;2023-05-07T14:34:13;20.10;99.90
5743;DHT22;2896;53.500;10.020;2023-05-07T14:36:39;20.40;99.90
5743;DHT22;2896;53.500;10.020;2023-05-07T14:39:06;20.20;99.90
5743;DHT22;2896;53.500;10.020;2023-05-07T14:41:33;20.20;99.90
5743;DHT22;2896;53.500;10.020;2023-05-07T14:43:59;19.90;99.90
5743;DHT22;2896;53.500;10.020;2023-05-07T14:46:27;20.30;99.90
5743;DHT22;2896;53.500;10.020;2023-05-07T14:48:53;20.50;99.90
5743;DHT22;2896;53.500;10.020;2023-05-07T14:51:21;20.70;99.90
5743;DHT22;2896;53.500;10.020;2023-05-07T14:53:49;21.10;99.90
5743;DHT22;2896;53.500;10.020;2023-05-07T14:56:16;21.10;99.90
5743;DHT22;2896;53.500;10.020;2023-05-07T14:58:43;21.20;99.90
5743;DHT22;2896;53.500;10.020;2023-05-07T15:01:10;20.80;99.90
5743;DHT22;2896;53.500;10.020;2023-05-07T15:03:36;20.60;99.90
5743;DHT22;2896;53.500;10.020;2023-05-07T15:06:03;20.60;99.90
5743;DHT22;2896;53.500;10.020;2023-05-07T15:08:31;20.20;99.90
5743;DHT22;2896;53.500;10.020;2023-05-07T15:10:58;20.10;99.90
5743;DHT22;2896;53.500;10.020;2023-05-07T15:13:24;20.30;99.90
5743;DHT22;2896;53.500;10.020;2023-05-07T15:15:51;20.20;99.90
5743;DHT22;2896;53.500;10.020;2023-05-07T15:18:18;20.40;99.90
5743;DHT22;2896;53.500;10.020;2023-05-07T15:20:44;19.60;99.90
5743;DHT22;2896;53.500;10.020;2023-05-07T15:23:11;19.50;99.90
5743;DHT22;2896;53.500;10.020;2023-05-07T15:25:41;19.30;99.90
5743;DHT22;2896;53.500;10.020;2023-05-07T15:28:07;19.20;99.90
5743;DHT22;2896;53.500;10.020;2023-05-07T15:30:34;19.00;99.90
5743;DHT22;2896;53.500;10.020;2023-05-07T15:33:01;19.30;99.90
5743;DHT22;2896;53.500;10.020;2023-05-07T15:35:28;19.70;99.90
5743;DHT22;2896;53.500;10.020;2023-05-07T15:37:54;19.60;99.90
5743;DHT22;2896;53.500;10.020;2023-05-07T15:40:21;19.40;99.90
5743;DHT22;2896;53.500;10.020;2023-05-07T15:42:50;19.20;99.90
5743;DHT22;2896;53.500;10.020;2023-05-07T15:45:20;18.50;99.90
5743;DHT22;2896;53.500;10.020;2023-05-07T15:47:46;18.60;99.90
5743;DHT22;2896;53.500;10.020;2023-05-07T15:50:13;18.50;99.90
5743;DHT22;2896;53.500;10.020;2023-05-07T15:52:40;18.50;99.90
5743;DHT22;2896;53.500;10.020;2023-05-07T15:55:07;18.10;99.90
5743;DHT22;2896;53.500;10.020;2023-05-07T15:57:34;18.30;99.90
5743;DHT22;2896;53.500;10.020;2023-05-07T16:00:03;18.30;99.90
5743;DHT22;2896;53.500;10.020;2023-05-07T16:02:33;20.10;99.90